createdAt,value
2023-03-31T00:02:13.951Z,8.95
2023-03-31T00:04:46.244Z,11.75
2023-03-31T00:07:14.452Z,9.57
2023-03-31T00:09:46.034Z,7.72
2023-03-31T00:12:16.670Z,13.20
2023-03-31T00:14:43.785Z,8.82
2023-03-31T00:17:11.362Z,7.82
2023-03-31T00:19:38.085Z,7.40
2023-03-31T00:22:05.282Z,8.95
2023-03-31T00:24:32.880Z,8.55
2023-03-31T00:27:01.044Z,7.60
2023-03-31T00:29:27.960Z,11.23
2023-03-31T00:31:55.442Z,9.23
2023-03-31T00:34:22.636Z,14.43
2023-03-31T00:36:49.201Z,9.43
2023-03-31T00:39:18.636Z,17.98
2023-03-31T00:41:45.702Z,11.88
2023-03-31T00:44:18.647Z,9.57
2023-03-31T00:46:57.123Z,11.20
2023-03-31T00:49:44.998Z,13.15
2023-03-31T00:52:15.408Z,9.30
2023-03-31T00:54:44.824Z,10.47
2023-03-31T00:57:11.856Z,11.60
2023-03-31T00:59:41.385Z,9.38
2023-03-31T01:02:08.675Z,12.52
2023-03-31T01:04:39.436Z,10.68
2023-03-31T01:07:16.771Z,9.40
2023-03-31T01:09:47.089Z,13.70
2023-03-31T01:12:16.135Z,7.65
2023-03-31T01:14:43.531Z,12.93
2023-03-31T01:17:10.207Z,11.68
2023-03-31T01:19:46.346Z,8.60
2023-03-31T01:23:06.935Z,7.93
2023-03-31T01:25:52.527Z,10.93
2023-03-31T01:28:31.113Z,10.52
2023-03-31T01:31:15.360Z,15.80
2023-03-31T01:33:57.058Z,9.45
2023-03-31T01:36:32.432Z,9.38
2023-03-31T01:39:25.645Z,155.27
2023-03-31T01:41:54.843Z,9.75
2023-03-31T01:44:43.657Z,11.95
2023-03-31T01:47:23.272Z,22.08
2023-03-31T01:49:58.147Z,12.52
2023-03-31T01:52:31.619Z,15.57
2023-03-31T01:55:11.407Z,47.58
2023-03-31T01:57:47.897Z,217.32
2023-03-31T02:00:16.428Z,466.20
2023-03-31T02:02:50.323Z,586.40
2023-03-31T02:05:20.369Z,580.47
2023-03-31T02:07:51.385Z,636.35
2023-03-31T02:10:18.593Z,588.88
2023-03-31T02:12:45.642Z,572.25
2023-03-31T02:15:16.197Z,21.48
2023-03-31T02:17:45.844Z,19.55
2023-03-31T02:20:15.323Z,17.10
2023-03-31T02:22:45.449Z,20.35
2023-03-31T02:25:14.724Z,24.42
2023-03-31T02:27:47.740Z,19.25
2023-03-31T02:30:14.961Z,19.98
2023-03-31T02:32:44.016Z,21.90
2023-03-31T02:35:18.112Z,20.33
2023-03-31T02:37:45.419Z,19.70
2023-03-31T02:40:18.739Z,24.73
2023-03-31T02:42:45.419Z,21.95
2023-03-31T02:45:36.771Z,24.58
2023-03-31T02:48:04.503Z,21.23
2023-03-31T02:50:38.975Z,25.02
2023-03-31T02:53:35.028Z,23.17
2023-03-31T02:56:30.929Z,23.13
2023-03-31T02:59:12.238Z,29.30
2023-03-31T03:04:54.432Z,18.27
2023-03-31T03:07:48.490Z,21.50
2023-03-31T03:10:33.195Z,26.63
2023-03-31T03:13:05.541Z,26.52
2023-03-31T03:15:57.609Z,22.95
2023-03-31T03:18:24.211Z,27.48
2023-03-31T03:20:51.292Z,34.15
2023-03-31T03:23:17.945Z,28.83
2023-03-31T03:25:44.729Z,25.08
2023-03-31T03:28:11.367Z,25.80
2023-03-31T03:30:38.314Z,28.73
2023-03-31T03:33:06.889Z,20.27
2023-03-31T03:35:34.151Z,21.92
2023-03-31T03:38:00.798Z,33.47
2023-03-31T03:40:27.357Z,22.58
2023-03-31T03:42:53.923Z,24.20
2023-03-31T03:45:20.681Z,28.70
2023-03-31T03:47:47.420Z,17.80
2023-03-31T03:50:16.115Z,23.17
2023-03-31T03:52:43.365Z,29.35
2023-03-31T03:55:11.951Z,28.83
2023-03-31T03:57:39.425Z,18.60
2023-03-31T04:00:11.249Z,23.67
2023-03-31T04:02:39.752Z,31.00
2023-03-31T04:05:06.484Z,23.38
2023-03-31T04:07:33.331Z,20.60
2023-03-31T04:09:59.878Z,19.10
2023-03-31T04:12:26.372Z,19.60
2023-03-31T04:14:52.921Z,14.98
2023-03-31T04:17:20.254Z,22.27
2023-03-31T04:19:50.653Z,16.83
2023-03-31T04:22:20.763Z,18.80
2023-03-31T04:24:52.614Z,16.95
2023-03-31T04:27:20.986Z,12.65
2023-03-31T04:29:54.530Z,22.63
2023-03-31T04:32:22.017Z,19.65
2023-03-31T04:34:50.986Z,14.68
2023-03-31T04:37:17.753Z,14.32
2023-03-31T04:39:46.646Z,15.45
2023-03-31T04:42:13.394Z,16.08
2023-03-31T04:44:39.894Z,15.18
2023-03-31T04:47:07.181Z,17.67
2023-03-31T04:49:35.821Z,21.67
2023-03-31T04:52:02.283Z,14.20
2023-03-31T04:54:28.852Z,14.00
2023-03-31T04:56:55.419Z,17.98
2023-03-31T04:59:21.985Z,17.85
2023-03-31T05:01:49.042Z,12.32
2023-03-31T05:04:15.920Z,21.52
2023-03-31T05:06:42.479Z,13.38
2023-03-31T05:09:10.054Z,11.32
2023-03-31T05:11:36.714Z,18.85
2023-03-31T05:14:03.404Z,12.05
2023-03-31T05:16:30.058Z,13.32
2023-03-31T05:18:57.683Z,16.30
2023-03-31T05:21:24.379Z,10.50
2023-03-31T05:23:50.981Z,11.23
2023-03-31T05:26:17.551Z,11.77
2023-03-31T05:28:44.302Z,7.43
2023-03-31T05:31:12.776Z,10.15
2023-03-31T05:33:41.640Z,13.43
2023-03-31T05:36:10.437Z,12.30
2023-03-31T05:38:37.594Z,10.55
2023-03-31T05:41:04.376Z,10.02
2023-03-31T05:43:31.004Z,7.25
2023-03-31T05:45:57.544Z,15.13
2023-03-31T05:48:24.365Z,9.95
2023-03-31T05:50:50.971Z,9.55
2023-03-31T05:53:17.474Z,15.40
2023-03-31T05:55:43.962Z,9.02
2023-03-31T05:58:10.669Z,7.82
2023-03-31T06:00:37.862Z,9.55
2023-03-31T06:03:04.627Z,16.10
2023-03-31T06:05:32.373Z,15.38
2023-03-31T06:07:59.021Z,12.68
2023-03-31T06:10:26.088Z,12.27
2023-03-31T06:12:52.581Z,12.52
2023-03-31T06:15:19.128Z,14.60
2023-03-31T06:17:45.788Z,11.05
2023-03-31T06:20:27.139Z,27.60
2023-03-31T06:22:54.630Z,11.95
2023-03-31T06:25:21.745Z,11.60
2023-03-31T06:27:48.324Z,12.13
2023-03-31T06:30:15.092Z,11.80
2023-03-31T06:32:41.667Z,11.60
2023-03-31T06:35:08.537Z,17.02
2023-03-31T06:37:35.078Z,13.65
2023-03-31T06:40:02.839Z,10.18
2023-03-31T06:42:29.460Z,9.60
2023-03-31T06:44:56.030Z,8.50
2023-03-31T06:47:22.685Z,23.73
2023-03-31T06:49:49.613Z,11.98
2023-03-31T06:52:16.571Z,6.10
2023-03-31T06:54:43.178Z,12.38
2023-03-31T06:57:09.843Z,7.65
2023-03-31T06:59:36.721Z,6.82
2023-03-31T07:02:03.977Z,10.60
2023-03-31T07:04:30.537Z,13.18
2023-03-31T07:06:59.120Z,6.50
2023-03-31T07:09:25.878Z,17.13
2023-03-31T07:11:56.851Z,10.45
2023-03-31T07:14:24.368Z,9.45
2023-03-31T07:16:51.049Z,10.43
2023-03-31T07:19:17.937Z,6.88
2023-03-31T07:21:44.674Z,9.40
2023-03-31T07:24:11.368Z,7.55
2023-03-31T07:26:37.943Z,11.00
2023-03-31T07:29:04.513Z,12.13
2023-03-31T07:31:31.125Z,12.05
2023-03-31T07:33:57.703Z,6.70
2023-03-31T07:36:24.241Z,6.68
2023-03-31T07:38:50.985Z,13.00
2023-03-31T07:41:19.909Z,9.60
2023-03-31T07:43:47.172Z,10.70
2023-03-31T07:46:25.366Z,9.32
2023-03-31T07:48:52.909Z,11.00
2023-03-31T07:51:22.183Z,8.85
2023-03-31T07:53:53.064Z,10.75
2023-03-31T07:58:48.503Z,8.45
2023-03-31T08:01:19.571Z,10.52
2023-03-31T08:03:47.420Z,135.65
2023-03-31T08:06:24.268Z,225.60
2023-03-31T08:08:51.336Z,15.73
2023-03-31T08:11:19.430Z,11.60
2023-03-31T08:13:45.944Z,162.45
2023-03-31T08:16:12.858Z,12.57
2023-03-31T08:18:39.400Z,7.88
2023-03-31T08:21:06.154Z,158.38
2023-03-31T08:23:33.184Z,522.03
2023-03-31T08:26:19.834Z,742.50
2023-03-31T08:28:48.666Z,44.53
2023-03-31T08:31:16.519Z,583.80
2023-03-31T08:33:43.434Z,551.33
2023-03-31T08:36:11.144Z,545.35
2023-03-31T08:38:39.116Z,562.58
2023-03-31T08:41:07.925Z,593.10
2023-03-31T08:43:41.976Z,599.70
2023-03-31T08:46:11.737Z,586.92
2023-03-31T08:48:50.993Z,579.67
2023-03-31T08:51:39.460Z,604.72
2023-03-31T08:54:17.112Z,583.25
2023-03-31T08:56:48.215Z,576.63
2023-03-31T08:59:27.760Z,637.40
2023-03-31T09:02:18.835Z,579.85
2023-03-31T09:05:07.399Z,577.95
2023-03-31T09:07:44.344Z,600.72
2023-03-31T09:10:25.924Z,637.50
2023-03-31T09:15:43.416Z,637.38
2023-03-31T09:18:27.739Z,587.53
2023-03-31T09:21:02.302Z,581.85
2023-03-31T09:23:31.498Z,605.38
2023-03-31T09:25:58.611Z,581.05
2023-03-31T09:28:36.335Z,725.78
2023-03-31T09:31:13.881Z,589.65
2023-03-31T09:33:47.429Z,620.65
2023-03-31T09:36:19.494Z,586.38
2023-03-31T09:38:46.986Z,615.35
2023-03-31T09:41:15.993Z,598.45
2023-03-31T09:43:45.885Z,754.45
2023-03-31T09:46:19.513Z,606.08
2023-03-31T09:49:00.580Z,637.00
2023-03-31T09:51:30.579Z,635.67
2023-03-31T09:54:02.994Z,603.45
2023-03-31T09:56:37.626Z,631.60
2023-03-31T09:59:04.554Z,593.17
2023-03-31T10:01:31.788Z,711.05
2023-03-31T10:03:58.427Z,580.80
2023-03-31T10:06:26.149Z,587.10
2023-03-31T10:08:57.885Z,576.30
2023-03-31T10:11:24.549Z,591.40
2023-03-31T10:14:02.156Z,583.08
2023-03-31T10:16:31.795Z,668.58
2023-03-31T10:19:17.395Z,591.60
2023-03-31T10:21:46.996Z,603.20
2023-03-31T10:24:19.639Z,589.05
2023-03-31T10:26:50.542Z,621.10
2023-03-31T10:29:31.643Z,600.03
2023-03-31T10:32:09.118Z,601.20
2023-03-31T10:34:40.631Z,694.33
2023-03-31T10:37:07.602Z,605.85
2023-03-31T10:39:34.295Z,625.15
2023-03-31T10:42:01.075Z,589.95
2023-03-31T10:44:38.361Z,598.75
2023-03-31T10:47:13.697Z,569.65
2023-03-31T10:49:41.981Z,647.22
2023-03-31T10:52:15.773Z,564.25
2023-03-31T10:55:01.533Z,578.28
2023-03-31T10:57:41.205Z,619.63
2023-03-31T11:00:16.638Z,622.40
2023-03-31T11:02:58.668Z,610.40
2023-03-31T11:05:39.228Z,555.03
2023-03-31T11:08:24.475Z,566.00
2023-03-31T11:11:02.026Z,591.70
2023-03-31T11:14:00.876Z,559.25
2023-03-31T11:16:48.946Z,562.80
2023-03-31T11:19:42.419Z,564.90
2023-03-31T11:22:17.149Z,568.45
2023-03-31T11:25:17.434Z,607.42
2023-03-31T11:28:14.292Z,597.75
2023-03-31T11:30:51.278Z,577.83
2023-03-31T11:33:39.901Z,568.53
2023-03-31T11:36:16.902Z,617.33
2023-03-31T11:38:44.462Z,591.20
2023-03-31T11:41:14.561Z,580.15
2023-03-31T11:43:47.400Z,627.85
2023-03-31T11:46:27.374Z,580.22
2023-03-31T11:49:06.860Z,589.65
2023-03-31T11:51:44.409Z,705.45
2023-03-31T11:54:20.411Z,597.47
2023-03-31T11:56:47.378Z,603.15
2023-03-31T11:59:16.155Z,595.75
2023-03-31T12:02:14.971Z,609.90
2023-03-31T12:04:44.239Z,602.53
2023-03-31T12:07:23.839Z,593.72
2023-03-31T12:10:12.001Z,604.92
2023-03-31T12:12:53.070Z,583.70
2023-03-31T12:15:22.875Z,653.40
2023-03-31T12:18:12.659Z,583.90
2023-03-31T12:20:49.156Z,573.95
2023-03-31T12:23:18.920Z,575.40
2023-03-31T12:25:51.750Z,581.05
2023-03-31T12:28:19.713Z,571.85
2023-03-31T12:30:48.171Z,587.03
2023-03-31T12:33:21.757Z,578.80
2023-03-31T12:36:17.442Z,594.50
2023-03-31T12:39:03.177Z,591.97
2023-03-31T12:41:47.115Z,587.63
2023-03-31T12:44:25.779Z,609.25
2023-03-31T12:46:58.705Z,596.80
2023-03-31T12:49:40.108Z,643.33
2023-03-31T12:52:31.584Z,682.90
2023-03-31T12:55:31.924Z,616.22
2023-03-31T12:58:34.777Z,604.65
2023-03-31T13:01:19.133Z,600.33
2023-03-31T13:04:21.142Z,590.80
2023-03-31T13:06:56.146Z,589.40
2023-03-31T13:09:22.589Z,619.50
2023-03-31T13:11:49.210Z,604.83
2023-03-31T13:14:22.918Z,638.88
2023-03-31T13:17:01.888Z,615.70
2023-03-31T13:19:33.815Z,622.58
2023-03-31T13:22:02.157Z,614.75
2023-03-31T13:24:31.132Z,618.03
2023-03-31T13:27:28.346Z,610.95
2023-03-31T13:29:54.903Z,611.22
2023-03-31T13:32:25.720Z,636.38
2023-03-31T13:35:05.671Z,610.63
2023-03-31T13:37:54.101Z,611.03
2023-03-31T13:40:26.936Z,696.38
2023-03-31T13:43:17.640Z,612.08
2023-03-31T13:46:22.616Z,593.40
2023-03-31T13:49:14.011Z,590.65
2023-03-31T13:51:59.798Z,585.30
2023-03-31T13:54:44.816Z,611.03
2023-03-31T13:57:52.451Z,608.15
2023-03-31T14:00:36.219Z,681.83
2023-03-31T14:03:30.611Z,591.53
2023-03-31T14:06:04.335Z,588.90
2023-03-31T14:08:45.726Z,593.08
2023-03-31T14:14:16.018Z,591.58
2023-03-31T14:16:48.617Z,576.33
2023-03-31T14:19:34.108Z,668.17
2023-03-31T14:22:09.433Z,587.70
2023-03-31T14:24:44.997Z,580.55
2023-03-31T14:27:39.604Z,670.92
2023-03-31T14:30:19.961Z,622.95
2023-03-31T14:33:18.218Z,573.13
2023-03-31T14:36:08.046Z,570.38
2023-03-31T14:38:34.657Z,570.85
2023-03-31T14:41:01.443Z,569.35
2023-03-31T14:43:36.382Z,582.80
2023-03-31T14:46:09.072Z,568.75
2023-03-31T14:48:44.941Z,553.78
2023-03-31T14:51:14.745Z,608.67
2023-03-31T14:53:43.290Z,559.70
2023-03-31T14:56:13.043Z,577.08
2023-03-31T14:58:42.606Z,550.60
2023-03-31T15:01:09.968Z,612.40
2023-03-31T15:03:41.482Z,575.95
2023-03-31T15:06:08.316Z,563.00
2023-03-31T15:08:35.228Z,539.92
2023-03-31T15:11:13.146Z,550.55
2023-03-31T15:14:03.410Z,536.22
2023-03-31T15:16:42.745Z,534.50
2023-03-31T15:19:25.274Z,565.08
2023-03-31T15:21:56.916Z,536.10
2023-03-31T15:24:23.800Z,538.28
2023-03-31T15:26:56.448Z,570.65
2023-03-31T15:29:41.762Z,548.53
2023-03-31T15:32:14.433Z,543.17
2023-03-31T15:34:43.354Z,573.33
2023-03-31T15:37:10.469Z,540.80
2023-03-31T15:39:37.826Z,563.85
2023-03-31T15:42:06.114Z,549.75
2023-03-31T15:44:39.419Z,552.95
2023-03-31T15:47:14.070Z,547.83
2023-03-31T15:49:54.928Z,561.33
2023-03-31T15:52:48.480Z,576.22
2023-03-31T15:55:29.735Z,629.75
2023-03-31T15:57:58.233Z,554.70
2023-03-31T16:00:33.529Z,560.25
2023-03-31T16:03:01.687Z,555.38
2023-03-31T16:05:55.284Z,546.33
2023-03-31T16:08:25.372Z,564.30
2023-03-31T16:11:04.118Z,543.60
2023-03-31T16:13:31.591Z,542.83
2023-03-31T16:15:59.259Z,543.47
2023-03-31T16:18:33.922Z,548.38
2023-03-31T16:21:02.485Z,545.63
2023-03-31T16:23:31.438Z,533.03
2023-03-31T16:25:59.103Z,537.67
2023-03-31T16:28:34.900Z,577.20
2023-03-31T16:31:02.069Z,541.38
2023-03-31T16:33:32.720Z,526.38
2023-03-31T16:36:02.390Z,537.97
2023-03-31T16:38:30.462Z,534.47
2023-03-31T16:40:57.782Z,528.20
2023-03-31T16:43:27.151Z,571.88
2023-03-31T16:45:59.014Z,521.47
2023-03-31T16:48:27.336Z,571.03
2023-03-31T16:50:55.945Z,524.50
2023-03-31T16:53:24.955Z,551.35
2023-03-31T16:55:51.551Z,521.45
2023-03-31T16:58:18.727Z,685.67
2023-03-31T17:00:45.853Z,525.95
2023-03-31T17:03:13.949Z,571.72
2023-03-31T17:05:43.102Z,521.13
2023-03-31T17:08:10.772Z,559.65
2023-03-31T17:10:38.530Z,525.20
2023-03-31T17:13:06.051Z,648.35
2023-03-31T17:15:34.956Z,523.47
2023-03-31T17:18:03.320Z,540.42
2023-03-31T17:20:30.434Z,526.42
2023-03-31T17:22:56.982Z,526.97
2023-03-31T17:25:23.516Z,546.03
2023-03-31T17:27:50.014Z,518.13
2023-03-31T17:30:16.519Z,628.10
2023-03-31T17:32:43.113Z,518.88
2023-03-31T17:35:10.325Z,678.47
2023-03-31T17:37:37.401Z,520.05
2023-03-31T17:40:05.095Z,528.92
2023-03-31T17:42:31.616Z,547.92
2023-03-31T17:44:58.436Z,519.95
2023-03-31T17:47:25.102Z,538.25
2023-03-31T17:49:51.817Z,526.10
2023-03-31T17:52:18.301Z,519.95
2023-03-31T17:54:44.802Z,554.03
2023-03-31T17:57:11.382Z,516.38
2023-03-31T17:59:39.035Z,569.47
2023-03-31T18:02:05.763Z,589.17
2023-03-31T18:04:32.475Z,516.78
2023-03-31T18:06:59.121Z,561.53
2023-03-31T18:09:25.728Z,515.70
2023-03-31T18:11:53.552Z,557.97
2023-03-31T18:14:20.214Z,525.83
2023-03-31T18:16:46.829Z,540.25
2023-03-31T18:19:14.088Z,518.10
2023-03-31T18:21:40.782Z,524.63
2023-03-31T18:24:07.432Z,544.80
2023-03-31T18:26:34.130Z,521.30
2023-03-31T18:29:00.660Z,556.35
2023-03-31T18:31:27.339Z,505.52
2023-03-31T18:33:54.776Z,557.55
2023-03-31T18:36:22.675Z,519.05
2023-03-31T18:38:50.465Z,590.10
2023-03-31T18:41:20.133Z,514.40
2023-03-31T18:43:52.019Z,530.95
2023-03-31T18:46:19.526Z,508.83
2023-03-31T18:48:46.511Z,568.28
2023-03-31T18:51:14.435Z,524.55
2023-03-31T18:53:41.431Z,531.47
2023-03-31T18:56:08.143Z,542.83
2023-03-31T18:58:34.641Z,513.78
2023-03-31T19:01:01.456Z,635.45
2023-03-31T19:03:28.044Z,513.42
2023-03-31T19:06:06.051Z,571.95
2023-03-31T19:08:32.953Z,520.85
2023-03-31T19:11:10.741Z,562.17
2023-03-31T19:13:38.158Z,514.90
2023-03-31T19:16:05.394Z,610.67
2023-03-31T19:18:32.047Z,520.42
2023-03-31T19:20:59.672Z,638.78
2023-03-31T19:23:26.524Z,513.80
2023-03-31T19:25:54.486Z,569.97
2023-03-31T19:28:22.123Z,519.63
2023-03-31T19:30:49.696Z,546.30
2023-03-31T19:33:16.423Z,519.45
2023-03-31T19:35:44.669Z,570.25
2023-03-31T19:38:11.583Z,545.85
2023-03-31T19:40:38.652Z,526.05
2023-03-31T19:43:05.265Z,524.55
2023-03-31T19:45:32.046Z,544.65
2023-03-31T19:47:58.751Z,522.63
2023-03-31T19:50:25.939Z,702.78
2023-03-31T19:52:52.479Z,541.50
2023-03-31T19:55:19.239Z,587.75
2023-03-31T19:57:45.977Z,569.72
2023-03-31T20:00:13.043Z,576.65
2023-03-31T20:02:39.700Z,630.40
2023-03-31T20:05:07.051Z,571.55
2023-03-31T20:07:33.622Z,542.03
2023-03-31T20:10:01.481Z,523.03
2023-03-31T20:12:28.304Z,542.25
2023-03-31T20:14:54.889Z,541.00
2023-03-31T20:17:21.495Z,523.60
2023-03-31T20:19:48.096Z,556.78
2023-03-31T20:22:14.646Z,519.08
2023-03-31T20:24:41.618Z,650.42
2023-03-31T20:27:08.616Z,525.80
2023-03-31T20:29:35.764Z,547.97
2023-03-31T20:32:02.645Z,526.63
2023-03-31T20:34:29.223Z,532.30
2023-03-31T20:36:57.096Z,561.35
2023-03-31T20:39:23.756Z,526.63
2023-03-31T20:41:51.111Z,555.35
2023-03-31T20:44:18.694Z,521.65
2023-03-31T20:46:45.479Z,656.53
2023-03-31T20:49:12.540Z,520.22
2023-03-31T20:51:39.605Z,565.28
2023-03-31T20:54:07.137Z,522.65
2023-03-31T20:56:37.587Z,542.78
2023-03-31T20:59:05.651Z,530.00
2023-03-31T21:01:33.670Z,548.40
2023-03-31T21:04:01.744Z,523.50
2023-03-31T21:06:30.982Z,542.03
2023-03-31T21:08:57.697Z,528.20
2023-03-31T21:11:24.958Z,535.83
2023-03-31T21:13:53.152Z,538.60
2023-03-31T21:16:20.734Z,552.75
2023-03-31T21:18:48.004Z,533.20
2023-03-31T21:21:16.063Z,576.67
2023-03-31T21:23:42.881Z,537.08
2023-03-31T21:26:11.379Z,644.47
2023-03-31T21:28:38.523Z,529.03
2023-03-31T21:31:08.045Z,566.47
2023-03-31T21:33:37.862Z,533.65
2023-03-31T21:36:06.649Z,561.03
2023-03-31T21:38:33.605Z,532.20
2023-03-31T21:41:14.812Z,592.50
2023-03-31T21:43:41.770Z,576.33
2023-03-31T21:46:08.698Z,532.72
2023-03-31T21:48:35.813Z,641.88
2023-03-31T21:51:03.196Z,543.42
2023-03-31T21:53:31.041Z,562.20
2023-03-31T21:55:57.766Z,534.38
2023-03-31T21:58:28.237Z,578.92
2023-03-31T22:00:56.239Z,528.60
2023-03-31T22:03:27.599Z,548.33
2023-03-31T22:05:56.020Z,533.22
2023-03-31T22:08:22.799Z,528.08
2023-03-31T22:10:50.780Z,574.33
2023-03-31T22:13:17.787Z,539.80
2023-03-31T22:15:44.795Z,634.38
2023-03-31T22:18:11.951Z,539.67
2023-03-31T22:20:39.122Z,598.53
2023-03-31T22:23:06.275Z,544.78
2023-03-31T22:25:33.730Z,717.47
2023-03-31T22:28:05.890Z,536.75
2023-03-31T22:30:33.449Z,433.83
2023-03-31T22:33:00.073Z,537.55
2023-03-31T22:35:27.048Z,558.85
2023-03-31T22:37:53.653Z,537.83
2023-03-31T22:40:20.744Z,608.83
2023-03-31T22:42:47.553Z,560.38
2023-03-31T22:45:14.116Z,598.75
2023-03-31T22:47:42.258Z,572.20
2023-03-31T22:50:10.401Z,648.38
2023-03-31T22:52:37.549Z,529.30
2023-03-31T22:55:04.801Z,617.00
2023-03-31T22:57:32.076Z,522.75
2023-03-31T22:59:59.069Z,579.13
2023-03-31T23:02:25.844Z,528.83
2023-03-31T23:04:52.510Z,534.22
2023-03-31T23:07:21.683Z,602.95
2023-03-31T23:09:48.854Z,527.38
2023-03-31T23:12:15.915Z,561.30
2023-03-31T23:14:42.494Z,523.00
2023-03-31T23:17:09.053Z,572.60
2023-03-31T23:19:37.060Z,529.85
2023-03-31T23:22:03.721Z,597.80
2023-03-31T23:24:30.486Z,530.38
2023-03-31T23:26:57.574Z,607.42
2023-03-31T23:29:24.578Z,531.15
2023-03-31T23:31:51.492Z,536.08
2023-03-31T23:34:18.223Z,550.78
2023-03-31T23:36:44.771Z,528.78
2023-03-31T23:39:11.305Z,653.05
2023-03-31T23:41:37.923Z,527.55
2023-03-31T23:44:04.982Z,578.33
2023-03-31T23:46:33.390Z,530.15
2023-03-31T23:49:02.488Z,558.00
2023-03-31T23:51:29.152Z,528.90
2023-03-31T23:53:55.790Z,638.92
2023-03-31T23:56:22.421Z,535.03
2023-03-31T23:58:49.151Z,640.58
